createdAt,value
2022-09-13T00:01:34.260Z,101531.88
2022-09-13T00:04:02.543Z,101524.31
2022-09-13T00:06:30.575Z,101542.22
2022-09-13T00:08:58.896Z,101558.75
2022-09-13T00:11:30.385Z,101548.22
2022-09-13T00:13:59.602Z,101554.19
2022-09-13T00:16:30.582Z,101564.59
2022-09-13T00:19:00.277Z,101561.00
2022-09-13T00:21:29.717Z,101564.69
2022-09-13T00:24:00.778Z,101567.41
2022-09-13T00:26:30.013Z,101562.31
2022-09-13T00:28:59.969Z,101580.94
2022-09-13T00:31:30.229Z,101576.44
2022-09-13T00:34:00.947Z,101574.53
2022-09-13T00:36:29.856Z,101577.97
2022-09-13T00:38:59.492Z,101585.84
2022-09-13T00:41:28.062Z,101578.13
2022-09-13T00:44:03.239Z,101584.88
2022-09-13T00:47:01.813Z,101594.16
2022-09-13T00:49:50.539Z,101588.81
2022-09-13T00:52:21.475Z,101578.53
2022-09-13T00:54:57.048Z,101592.88
2022-09-13T00:57:27.193Z,101593.59
2022-09-13T01:00:12.309Z,101602.25
2022-09-13T01:02:48.638Z,101596.97
2022-09-13T01:05:19.732Z,101604.50
2022-09-13T01:07:48.589Z,101607.03
2022-09-13T01:10:17.068Z,101604.28
2022-09-13T01:13:11.733Z,101608.47
2022-09-13T01:15:40.466Z,101622.19
2022-09-13T01:18:10.000Z,101620.44
2022-09-13T01:20:46.965Z,101628.19
2022-09-13T01:23:21.176Z,101624.66
2022-09-13T01:25:58.179Z,101621.13
2022-09-13T01:29:00.298Z,101625.34
2022-09-13T01:32:15.513Z,101628.66
2022-09-13T01:37:48.409Z,101629.34
2022-09-13T01:40:51.935Z,101637.03
2022-09-13T01:43:44.058Z,101631.59
2022-09-13T01:46:54.666Z,101629.91
2022-09-13T01:50:06.554Z,101651.09
2022-09-13T01:52:55.180Z,101643.13
2022-09-13T01:55:42.498Z,101648.25
2022-09-13T01:58:22.226Z,101645.44
2022-09-13T02:01:18.867Z,101644.44
2022-09-13T02:03:58.082Z,101650.31
2022-09-13T02:06:35.317Z,101639.66
2022-09-13T02:09:12.463Z,101651.69
2022-09-13T02:11:46.023Z,101643.88
2022-09-13T02:14:24.057Z,101650.34
2022-09-13T02:17:02.853Z,101662.19
2022-09-13T02:19:54.361Z,101655.13
2022-09-13T02:22:32.703Z,101643.91
2022-09-13T02:25:17.089Z,101661.56
2022-09-13T02:27:49.191Z,101664.78
2022-09-13T02:30:18.284Z,101664.56
2022-09-13T02:32:59.444Z,101673.88
2022-09-13T02:35:32.209Z,101667.50
2022-09-13T02:38:09.248Z,101669.88
2022-09-13T02:40:44.184Z,101665.34
2022-09-13T02:43:22.129Z,101671.19
2022-09-13T02:46:13.519Z,101679.31
2022-09-13T02:49:07.127Z,101684.22
2022-09-13T02:51:48.336Z,101671.84
2022-09-13T02:54:24.508Z,101675.06
2022-09-13T02:56:57.350Z,101686.09
2022-09-13T02:59:26.396Z,101686.81
2022-09-13T03:02:08.270Z,101684.81
2022-09-13T03:04:36.782Z,101683.78
2022-09-13T03:07:08.600Z,101671.81
2022-09-13T03:09:36.887Z,101690.31
2022-09-13T03:12:35.822Z,101685.84
2022-09-13T03:15:25.630Z,101687.03
2022-09-13T03:18:31.908Z,101685.88
2022-09-13T03:21:29.007Z,101682.25
2022-09-13T03:24:26.890Z,101689.16
2022-09-13T03:27:25.636Z,101705.75
2022-09-13T03:30:05.835Z,101701.22
2022-09-13T03:33:03.316Z,101692.13
2022-09-13T03:36:02.563Z,101710.53
2022-09-13T03:39:14.374Z,101705.72
2022-09-13T03:41:49.182Z,101713.16
2022-09-13T03:44:22.206Z,101707.63
2022-09-13T03:46:55.457Z,101717.47
2022-09-13T03:49:26.456Z,101693.38
2022-09-13T03:51:55.873Z,101712.06
2022-09-13T03:54:27.915Z,101723.78
2022-09-13T03:57:20.020Z,101718.44
2022-09-13T03:59:54.649Z,101724.81
2022-09-13T04:02:26.366Z,101726.75
2022-09-13T04:04:54.511Z,101723.41
2022-09-13T04:07:24.857Z,101732.84
2022-09-13T04:09:53.096Z,101730.88
2022-09-13T04:12:21.057Z,101738.72
2022-09-13T04:14:49.612Z,101723.75
2022-09-13T04:17:20.037Z,101730.66
2022-09-13T04:19:48.053Z,101730.38
2022-09-13T04:22:16.498Z,101730.59
2022-09-13T04:24:45.324Z,101730.13
2022-09-13T04:27:14.079Z,101734.41
2022-09-13T04:29:42.100Z,101735.91
2022-09-13T04:32:11.584Z,101734.53
2022-09-13T04:34:39.795Z,101729.28
2022-09-13T04:37:07.748Z,101736.13
2022-09-13T04:39:37.016Z,101741.88
2022-09-13T04:42:05.556Z,101728.50
2022-09-13T04:44:34.275Z,101734.69
2022-09-13T04:47:05.158Z,101721.47
2022-09-13T04:49:33.117Z,101722.84
2022-09-13T04:52:01.105Z,101731.97
2022-09-13T04:54:29.217Z,101720.69
2022-09-13T04:56:57.158Z,101730.59
2022-09-13T04:59:25.159Z,101726.31
2022-09-13T05:01:54.335Z,101725.00
2022-09-13T05:04:22.268Z,101707.97
2022-09-13T05:06:50.268Z,101732.13
2022-09-13T05:09:19.396Z,101727.00
2022-09-13T05:11:47.443Z,101730.03
2022-09-13T05:14:15.852Z,101711.56
2022-09-13T05:16:45.188Z,101722.97
2022-09-13T05:19:13.975Z,101715.44
2022-09-13T05:21:41.879Z,101717.47
2022-09-13T05:24:10.359Z,101713.38
2022-09-13T05:26:56.438Z,101706.06
2022-09-13T05:29:25.428Z,101714.34
2022-09-13T05:31:53.700Z,101706.31
2022-09-13T05:34:21.702Z,101705.72
2022-09-13T05:36:54.187Z,101716.19
2022-09-13T05:39:33.838Z,101706.34
2022-09-13T05:42:09.103Z,101705.63
2022-09-13T05:44:37.063Z,101700.59
2022-09-13T05:47:05.129Z,101708.59
2022-09-13T05:49:33.310Z,101710.75
2022-09-13T05:52:01.225Z,101711.25
2022-09-13T05:54:29.342Z,101703.91
2022-09-13T05:56:59.906Z,101699.97
2022-09-13T05:59:27.883Z,101707.25
2022-09-13T06:01:56.004Z,101707.16
2022-09-13T06:04:25.274Z,101693.34
2022-09-13T06:06:53.234Z,101705.56
2022-09-13T06:09:21.155Z,101697.63
2022-09-13T06:11:50.826Z,101697.41
2022-09-13T06:14:19.265Z,101706.38
2022-09-13T06:16:48.298Z,101696.19
2022-09-13T06:19:16.575Z,101706.38
2022-09-13T06:21:44.889Z,101700.75
2022-09-13T06:24:12.887Z,101709.84
2022-09-13T06:26:41.150Z,101694.16
2022-09-13T06:29:13.687Z,101696.44
2022-09-13T06:31:45.791Z,101700.91
2022-09-13T06:34:19.916Z,101698.16
2022-09-13T06:36:47.902Z,101694.84
2022-09-13T06:39:15.745Z,101688.25
2022-09-13T06:41:43.853Z,101693.66
2022-09-13T06:44:11.839Z,101692.75
2022-09-13T06:46:39.798Z,101698.16
2022-09-13T06:49:10.418Z,101700.78
2022-09-13T06:51:38.517Z,101694.56
2022-09-13T06:54:06.726Z,101702.22
2022-09-13T06:56:40.160Z,101706.28
2022-09-13T06:59:11.102Z,101705.81
2022-09-13T07:01:44.383Z,101699.31
2022-09-13T07:04:17.884Z,101700.03
2022-09-13T07:06:55.788Z,101693.22
2022-09-13T07:09:23.743Z,101706.91
2022-09-13T07:11:54.233Z,101706.44
2022-09-13T07:14:27.747Z,101694.66
2022-09-13T07:16:56.593Z,101690.59
2022-09-13T07:19:29.664Z,101698.38
2022-09-13T07:21:59.685Z,101703.84
2022-09-13T07:24:27.803Z,101705.75
2022-09-13T07:26:55.792Z,101699.16
2022-09-13T07:29:29.697Z,101695.06
2022-09-13T07:31:59.111Z,101700.34
2022-09-13T07:34:28.074Z,101692.66
2022-09-13T07:36:56.319Z,101690.56
2022-09-13T07:39:24.856Z,101696.13
2022-09-13T07:41:54.321Z,101693.84
2022-09-13T07:44:25.303Z,101693.34
2022-09-13T07:46:53.315Z,101685.84
2022-09-13T07:49:21.464Z,101679.38
2022-09-13T07:51:52.147Z,101684.06
2022-09-13T07:54:21.181Z,101679.00
2022-09-13T07:56:50.893Z,101664.25
2022-09-13T07:59:20.297Z,101693.16
2022-09-13T08:01:51.366Z,101681.03
2022-09-13T08:04:22.583Z,101675.06
2022-09-13T08:06:50.587Z,101684.66
2022-09-13T08:09:18.726Z,101681.19
2022-09-13T08:11:57.860Z,101675.59
2022-09-13T08:14:25.791Z,101680.88
2022-09-13T08:16:57.571Z,101681.34
2022-09-13T08:19:25.877Z,101690.94
2022-09-13T08:21:53.863Z,101687.34
2022-09-13T08:24:22.984Z,101681.00
2022-09-13T08:26:54.461Z,101674.66
2022-09-13T08:29:22.421Z,101679.94
2022-09-13T08:31:50.336Z,101676.91
2022-09-13T08:34:19.653Z,101675.34
2022-09-13T08:36:47.718Z,101665.59
2022-09-13T08:39:15.773Z,101671.38
2022-09-13T08:41:53.408Z,101674.59
2022-09-13T08:44:30.741Z,101673.84
2022-09-13T08:47:15.166Z,101666.50
2022-09-13T08:49:50.131Z,101671.91
2022-09-13T08:52:33.813Z,101680.03
2022-09-13T08:55:16.335Z,101669.84
2022-09-13T08:57:56.382Z,101666.94
2022-09-13T09:00:42.022Z,101676.84
2022-09-13T09:03:36.504Z,101680.63
2022-09-13T09:06:04.518Z,101674.03
2022-09-13T09:08:42.608Z,101674.25
2022-09-13T09:11:32.093Z,101679.75
2022-09-13T09:14:31.607Z,101674.91
2022-09-13T09:17:08.589Z,101677.66
2022-09-13T09:19:44.810Z,101663.97
2022-09-13T09:22:19.031Z,101675.34
2022-09-13T09:24:51.778Z,101669.47
2022-09-13T09:27:20.847Z,101670.88
2022-09-13T09:29:55.615Z,101671.44
2022-09-13T09:32:38.604Z,101669.03
2022-09-13T09:35:30.765Z,101669.25
2022-09-13T09:38:26.590Z,101660.81
2022-09-13T09:40:54.603Z,101666.50
2022-09-13T09:43:53.714Z,101658.44
2022-09-13T09:46:27.531Z,101667.69
2022-09-13T09:49:03.060Z,101659.28
2022-09-13T09:51:31.999Z,101655.47
2022-09-13T09:54:05.808Z,101668.53
2022-09-13T09:56:37.221Z,101670.31
2022-09-13T09:59:05.199Z,101664.84
2022-09-13T10:01:38.100Z,101657.16
2022-09-13T10:04:20.820Z,101663.03
2022-09-13T10:06:50.647Z,101662.09
2022-09-13T10:09:19.650Z,101667.34
2022-09-13T10:11:55.503Z,101668.41
2022-09-13T10:14:35.339Z,101674.75
2022-09-13T10:17:22.989Z,101670.66
2022-09-13T10:19:59.129Z,101666.88
2022-09-13T10:22:28.545Z,101673.59
2022-09-13T10:25:25.037Z,101670.13
2022-09-13T10:27:57.817Z,101677.06
2022-09-13T10:30:39.894Z,101675.28
2022-09-13T10:33:23.210Z,101661.41
2022-09-13T10:35:56.290Z,101664.97
2022-09-13T10:38:34.900Z,101646.81
2022-09-13T10:41:07.108Z,101662.69
2022-09-13T10:43:36.371Z,101666.59
2022-09-13T10:46:07.424Z,101665.97
2022-09-13T10:48:58.930Z,101650.72
2022-09-13T10:51:29.685Z,101657.66
2022-09-13T10:54:15.920Z,101651.56
2022-09-13T10:56:47.124Z,101657.66
2022-09-13T10:59:24.196Z,101661.13
2022-09-13T11:02:16.655Z,101660.28
2022-09-13T11:05:23.295Z,101657.88
2022-09-13T11:08:19.852Z,101659.66
2022-09-13T11:11:23.079Z,101660.63
2022-09-13T11:13:56.830Z,101649.16
2022-09-13T11:17:06.249Z,101653.47
2022-09-13T11:19:43.153Z,101656.09
2022-09-13T11:22:28.200Z,101645.97
2022-09-13T11:25:06.482Z,101649.03
2022-09-13T11:27:48.889Z,101651.25
2022-09-13T11:30:30.174Z,101653.47
2022-09-13T11:33:34.679Z,101644.75
2022-09-13T11:36:16.328Z,101641.81
2022-09-13T11:39:29.177Z,101660.94
2022-09-13T11:42:08.820Z,101662.19
2022-09-13T11:45:03.895Z,101656.41
2022-09-13T11:47:53.075Z,101662.78
2022-09-13T11:50:27.624Z,101660.38
2022-09-13T11:53:04.554Z,101665.09
2022-09-13T11:55:42.461Z,101645.81
2022-09-13T11:58:20.508Z,101662.72
2022-09-13T12:00:57.378Z,101660.72
2022-09-13T12:03:59.050Z,101665.16
2022-09-13T12:06:41.955Z,101664.81
2022-09-13T12:09:30.311Z,101642.06
2022-09-13T12:12:13.064Z,101663.59
2022-09-13T12:15:08.501Z,101657.34
2022-09-13T12:17:51.865Z,101673.19
2022-09-13T12:20:42.668Z,101651.47
2022-09-13T12:23:48.834Z,101665.91
2022-09-13T12:26:21.450Z,101662.16
2022-09-13T12:28:59.104Z,101670.63
2022-09-13T12:31:30.212Z,101674.56
2022-09-13T12:33:59.057Z,101668.09
2022-09-13T12:36:39.654Z,101672.66
2022-09-13T12:39:28.658Z,101678.34
2022-09-13T12:42:31.061Z,101672.09
2022-09-13T12:45:21.687Z,101679.66
2022-09-13T12:47:50.461Z,101681.88
2022-09-13T12:50:43.342Z,101676.44
2022-09-13T12:53:44.472Z,101681.41
2022-09-13T12:56:21.132Z,101687.19
2022-09-13T12:59:26.438Z,101680.22
2022-09-13T13:01:55.339Z,101675.84
2022-09-13T13:04:28.188Z,101681.94
2022-09-13T13:07:09.848Z,101688.59
2022-09-13T13:09:51.552Z,101695.59
2022-09-13T13:12:37.228Z,101688.09
2022-09-13T13:15:29.147Z,101698.91
2022-09-13T13:17:57.887Z,101696.72
2022-09-13T13:21:06.605Z,101701.69
2022-09-13T13:23:40.453Z,101709.94
2022-09-13T13:27:00.557Z,101705.09
2022-09-13T13:29:33.775Z,101704.69
2022-09-13T13:32:03.496Z,101706.84
2022-09-13T13:34:45.598Z,101709.38
2022-09-13T13:37:16.384Z,101725.81
2022-09-13T13:39:50.366Z,101727.06
2022-09-13T13:42:33.817Z,101725.84
2022-09-13T13:45:01.682Z,101734.75
2022-09-13T13:47:33.504Z,101731.75
2022-09-13T13:50:04.425Z,101730.44
2022-09-13T13:52:41.338Z,101732.53
2022-09-13T13:56:10.144Z,101737.28
2022-09-13T13:58:51.654Z,101736.59
2022-09-13T14:01:27.581Z,101740.22
2022-09-13T14:04:12.218Z,101731.00
2022-09-13T14:06:51.298Z,101743.13
2022-09-13T14:09:47.838Z,101735.69
2022-09-13T14:12:30.339Z,101743.56
2022-09-13T14:15:08.265Z,101743.69
2022-09-13T14:18:21.552Z,101742.31
2022-09-13T14:21:05.279Z,101740.22
2022-09-13T14:23:35.311Z,101740.22
2022-09-13T14:26:05.813Z,101734.69
2022-09-13T14:28:33.958Z,101747.06
2022-09-13T14:31:03.013Z,101756.59
2022-09-13T14:33:35.499Z,101747.28
2022-09-13T14:36:20.548Z,101727.41
2022-09-13T14:38:55.257Z,101758.84
2022-09-13T14:41:32.312Z,101765.94
2022-09-13T14:44:28.141Z,101763.47
2022-09-13T14:47:08.694Z,101763.56
2022-09-13T14:49:45.275Z,101760.25
2022-09-13T14:52:29.686Z,101760.16
2022-09-13T14:55:10.459Z,101760.16
2022-09-13T14:57:44.980Z,101765.47
2022-09-13T15:00:22.959Z,101762.91
2022-09-13T15:02:57.455Z,101764.75
2022-09-13T15:05:32.508Z,101756.44
2022-09-13T15:08:00.593Z,101743.81
2022-09-13T15:10:34.175Z,101761.66
2022-09-13T15:13:09.475Z,101755.66
2022-09-13T15:15:42.899Z,101766.94
2022-09-13T15:18:24.417Z,101769.63
2022-09-13T15:21:03.246Z,101770.53
2022-09-13T15:23:35.990Z,101766.31
2022-09-13T15:26:11.280Z,101760.09
2022-09-13T15:28:42.425Z,101760.94
2022-09-13T15:31:12.113Z,101766.22
2022-09-13T15:33:40.117Z,101767.22
2022-09-13T15:36:32.073Z,101750.72
2022-09-13T15:39:18.037Z,101762.00
2022-09-13T15:41:57.211Z,101756.03
2022-09-13T15:44:26.276Z,101761.31
2022-09-13T15:47:07.169Z,101749.25
2022-09-13T15:49:35.165Z,101763.91
2022-09-13T15:52:05.814Z,101744.31
2022-09-13T15:54:42.418Z,101759.75
2022-09-13T15:57:18.808Z,101745.22
2022-09-13T15:59:46.850Z,101756.28
2022-09-13T16:02:41.746Z,101754.59
2022-09-13T16:05:09.837Z,101743.63
2022-09-13T16:07:38.298Z,101752.00
2022-09-13T16:10:14.699Z,101747.84
2022-09-13T16:12:42.889Z,101743.34
2022-09-13T16:15:13.343Z,101755.59
2022-09-13T16:17:42.594Z,101749.41
2022-09-13T16:20:16.083Z,101757.22
2022-09-13T16:22:44.186Z,101748.53
2022-09-13T16:25:17.105Z,101756.44
2022-09-13T16:27:45.454Z,101749.53
2022-09-13T16:30:20.562Z,101743.47
2022-09-13T16:32:51.092Z,101742.13
2022-09-13T16:35:19.441Z,101740.09
2022-09-13T16:37:52.170Z,101740.09
2022-09-13T16:40:21.221Z,101753.25
2022-09-13T16:42:49.345Z,101745.50
2022-09-13T16:45:17.608Z,101749.03
2022-09-13T16:47:45.738Z,101746.44
2022-09-13T16:50:14.547Z,101737.09
2022-09-13T16:52:42.771Z,101740.50
2022-09-13T16:55:13.645Z,101742.19
2022-09-13T16:57:42.444Z,101743.03
2022-09-13T17:00:16.388Z,101746.50
2022-09-13T17:02:44.450Z,101743.97
2022-09-13T17:05:13.366Z,101743.88
2022-09-13T17:07:41.325Z,101733.00
2022-09-13T17:10:10.417Z,101739.59
2022-09-13T17:12:38.821Z,101737.84
2022-09-13T17:15:07.846Z,101739.59
2022-09-13T17:17:37.324Z,101701.72
2022-09-13T17:20:13.808Z,101744.88
2022-09-13T17:22:42.013Z,101733.78
2022-09-13T17:25:11.123Z,101749.22
2022-09-13T17:27:39.123Z,101741.41
2022-09-13T17:30:09.626Z,101738.84
2022-09-13T17:32:37.618Z,101732.88
2022-09-13T17:35:06.969Z,101734.69
2022-09-13T17:37:35.045Z,101739.00
2022-09-13T17:40:05.142Z,101740.63
2022-09-13T17:42:33.120Z,101750.34
2022-09-13T17:45:01.038Z,101736.66
2022-09-13T17:47:29.072Z,101741.81
2022-09-13T17:49:57.139Z,101742.66
2022-09-13T17:52:25.178Z,101734.19
2022-09-13T17:54:53.117Z,101739.13
2022-09-13T17:57:21.388Z,101731.59
2022-09-13T17:59:51.831Z,101723.78
2022-09-13T18:02:19.833Z,101735.75
2022-09-13T18:04:48.239Z,101734.06
2022-09-13T18:07:16.255Z,101736.66
2022-09-13T18:09:45.140Z,101735.81
2022-09-13T18:12:13.384Z,101726.25
2022-09-13T18:14:41.401Z,101724.69
2022-09-13T18:17:13.679Z,101728.34
2022-09-13T18:19:46.738Z,101697.19
2022-09-13T18:22:15.819Z,101721.50
2022-09-13T18:24:45.493Z,101723.19
2022-09-13T18:27:15.893Z,101722.28
2022-09-13T18:29:58.838Z,101726.44
2022-09-13T18:32:27.683Z,101728.22
2022-09-13T18:34:55.643Z,101717.91
2022-09-13T18:37:23.606Z,101720.72
2022-09-13T18:39:51.825Z,101725.88
2022-09-13T18:42:19.809Z,101718.97
2022-09-13T18:44:47.814Z,101707.06
2022-09-13T18:47:16.911Z,101713.63
2022-09-13T18:49:44.892Z,101717.91
2022-09-13T18:52:12.951Z,101709.47
2022-09-13T18:54:41.987Z,101710.94
2022-09-13T18:57:10.017Z,101726.50
2022-09-13T18:59:37.966Z,101709.34
2022-09-13T19:02:07.132Z,101716.09
2022-09-13T19:04:37.614Z,101705.75
2022-09-13T19:07:07.646Z,101713.56
2022-09-13T19:09:37.898Z,101716.88
2022-09-13T19:12:06.161Z,101716.03
2022-09-13T19:14:34.365Z,101719.47
2022-09-13T19:17:04.500Z,101718.56
2022-09-13T19:19:32.807Z,101722.84
2022-09-13T19:22:00.806Z,101719.41
2022-09-13T19:24:29.140Z,101715.97
2022-09-13T19:26:57.300Z,101709.47
2022-09-13T19:29:25.475Z,101710.38
2022-09-13T19:31:59.407Z,101713.00
2022-09-13T19:34:27.437Z,101720.03
2022-09-13T19:36:58.504Z,101712.06
2022-09-13T19:39:30.929Z,101699.81
2022-09-13T19:42:01.102Z,101697.34
2022-09-13T19:44:29.362Z,101710.03
2022-09-13T19:47:36.298Z,101706.53
2022-09-13T19:49:46.415Z,101696.88
2022-09-13T19:52:14.505Z,101688.50
2022-09-13T19:54:42.590Z,101688.41
2022-09-13T19:57:10.606Z,101701.16
2022-09-13T19:59:38.773Z,101706.44
2022-09-13T20:02:07.577Z,101702.00
2022-09-13T20:04:35.724Z,101702.88
2022-09-13T20:07:06.669Z,101697.78
2022-09-13T20:09:34.616Z,101703.06
2022-09-13T20:12:02.908Z,101701.50
2022-09-13T20:14:33.467Z,101691.09
2022-09-13T20:17:03.078Z,101699.63
2022-09-13T20:19:41.036Z,101704.84
2022-09-13T20:22:10.844Z,101700.41
2022-09-13T20:24:38.884Z,101704.75
2022-09-13T20:27:07.146Z,101694.34
2022-09-13T20:29:36.642Z,101693.56
2022-09-13T20:32:04.642Z,101685.19
2022-09-13T20:34:32.609Z,101691.88
2022-09-13T20:37:00.623Z,101702.22
2022-09-13T20:39:28.516Z,101692.66
2022-09-13T20:41:56.455Z,101704.91
2022-09-13T20:44:24.582Z,101698.78
2022-09-13T20:46:52.701Z,101691.31
2022-09-13T20:49:20.778Z,101692.22
2022-09-13T20:51:51.014Z,101664.25
2022-09-13T20:54:19.007Z,101694.53
2022-09-13T20:56:47.448Z,101696.25
2022-09-13T20:59:15.525Z,101704.91
2022-09-13T21:01:43.816Z,101693.63
2022-09-13T21:04:11.821Z,101700.81
2022-09-13T21:07:04.991Z,101689.69
2022-09-13T21:09:33.114Z,101697.56
2022-09-13T21:12:02.589Z,101700.09
2022-09-13T21:14:33.493Z,101687.22
2022-09-13T21:17:02.449Z,101683.69
2022-09-13T21:19:30.385Z,101688.00
2022-09-13T21:22:59.000Z,101691.16
2022-09-13T21:25:27.443Z,101695.59
2022-09-13T21:27:55.518Z,101693.91
2022-09-13T21:30:26.144Z,101693.00
2022-09-13T21:32:54.255Z,101678.41
2022-09-13T21:35:22.239Z,101693.97
2022-09-13T21:37:50.335Z,101660.03
2022-09-13T21:40:18.313Z,101700.16
2022-09-13T21:42:46.316Z,101675.72
2022-09-13T21:45:14.534Z,101692.69
2022-09-13T21:47:42.440Z,101684.09
2022-09-13T21:50:10.701Z,101685.94
2022-09-13T21:52:38.881Z,101680.72
2022-09-13T21:55:07.033Z,101698.69
2022-09-13T21:57:34.972Z,101698.69
2022-09-13T22:00:06.058Z,101689.19
2022-09-13T22:02:34.036Z,101698.69
2022-09-13T22:05:02.019Z,101679.59
2022-09-13T22:07:32.596Z,101693.53
2022-09-13T22:10:00.520Z,101685.66
2022-09-13T22:12:28.473Z,101688.41
2022-09-13T22:14:56.548Z,101678.38
2022-09-13T22:17:24.806Z,101693.81
2022-09-13T22:19:52.836Z,101694.72
2022-09-13T22:22:22.041Z,101695.69
2022-09-13T22:24:50.331Z,101687.97
2022-09-13T22:27:18.280Z,101698.44
2022-09-13T22:29:47.410Z,101687.97
2022-09-13T22:32:15.389Z,101691.41
2022-09-13T22:34:43.417Z,101690.56
2022-09-13T22:37:11.599Z,101692.25
2022-09-13T22:39:39.533Z,101685.28
2022-09-13T22:42:07.620Z,101682.75
2022-09-13T22:44:38.631Z,101688.88
2022-09-13T22:47:06.757Z,101678.69
2022-09-13T22:49:34.690Z,101689.03
2022-09-13T22:52:04.662Z,101683.59
2022-09-13T22:54:32.580Z,101682.88
2022-09-13T22:57:01.534Z,101689.06
2022-09-13T22:59:29.689Z,101698.22
2022-09-13T23:01:57.596Z,101699.91
2022-09-13T23:04:25.510Z,101694.72
2022-09-13T23:06:53.641Z,101690.41
2022-09-13T23:09:21.611Z,101685.88
2022-09-13T23:11:49.523Z,101696.28
2022-09-13T23:14:22.102Z,101688.41
2022-09-13T23:16:52.406Z,101691.91
2022-09-13T23:19:23.818Z,101698.03
2022-09-13T23:21:54.220Z,101696.28
2022-09-13T23:24:23.084Z,101694.66
2022-09-13T23:26:53.060Z,101699.00
2022-09-13T23:29:21.347Z,101702.66
2022-09-13T23:31:51.497Z,101688.94
2022-09-13T23:34:22.141Z,101682.94
2022-09-13T23:36:50.248Z,101696.72
2022-09-13T23:39:20.692Z,101696.81
2022-09-13T23:41:51.024Z,101697.59
2022-09-13T23:44:19.326Z,101687.69
2022-09-13T23:46:47.275Z,101694.47
2022-09-13T23:49:15.422Z,101693.69
2022-09-13T23:51:44.325Z,101692.00
2022-09-13T23:54:14.429Z,101690.94
2022-09-13T23:56:43.472Z,101700.50
2022-09-13T23:59:14.031Z,101695.25
